Terminal Aerodrome Forecast
Issued by NWS Spokane, WA

Home | Current Version | Previous Version | Text Only | Print | Product List | Glossary On
Versions: 1 2 3 4 5 6 7 8 9 10 11 12 13 14 15 16 17 18 19 20 21 22 23 24 25 26 27 28 29 30 31 32 33 34 35 36 37 38 39
000
FTUS46 KOTX 191139
TAFGEG
TAF
KGEG 191139Z 1912/2012 13006KT P6SM -RA BKN045 OVC070
     FM191500 17007KT 4SM -RA BR BKN008 OVC015
     FM192200 22010KT P6SM BKN015 OVC030
     FM200400 19005KT P6SM SCT010 BKN150
     FM200600 17006KT P6SM OVC005=

USA.gov is the U.S. government's official web portal to all federal, state and local government web resources and services.